Temp: 18.7°C   Baro: 1015.6mb
  Wind: 6.9mph   Dir: WSW (255°)
  Rain: 0.6mm (0.0mm/hr)
  Solar: 311W/m2  Hum: 61%
 
Bath Spa Weather Station Historical Data
Daily Summary for August 02, 2020 Units:  Metric    English   Both
Daily Weekly Monthly Yearly Custom
  High: Low: Average:
Temperature: 21.1 °C 12.7 °C 16.1 °C
Dew Point: 14.1 °C 9.7 °C 11.7 °C
Humidity: 89% 59% 76%
Wind Speed: 19.6km/h 0km/h 6.6km/h
Wind Gust: 29km/h - -
Wind- - West
Pressure: 1017.8 hPa 1015.8 hPa -
Precipitation: 0 mm    
Historical Graphs
 
 
Tabular Data for August 02, 2020
Time Temperature Dew Point Pressure Wind Wind Speed Wind Gust Humidity Rainfall Rate (Hourly) solar
00:04 13.4 °C 9.7 °C 1017.2 hPa Calm   4.8 km/h 78.6% 0 mm 0 W/m2
00:09 13.3 °C 9.7 °C 1017.2 hPa Calm     79% 0 mm 0 W/m2
00:14 13.3 °C 9.7 °C 1017.2 hPa Calm     79% 0 mm 0 W/m2
00:19 13.2 °C 9.7 °C 1017.2 hPa Calm     79.5% 0 mm 0 W/m2
00:24 13.2 °C 9.7 °C 1017.2 hPa Calm     80% 0 mm 0 W/m2
00:29 13.1 °C 9.7 °C 1017.2 hPa Calm     80% 0 mm 0 W/m2
00:34 13.1 °C 9.7 °C 1017.2 hPa Calm     80% 0 mm 0 W/m2
00:39 13.1 °C 9.8 °C 1017.2 hPa Calm     80.6% 0 mm 0 W/m2
00:44 13.1 °C 9.8 °C 1017.2 hPa Calm     81% 0 mm 0 W/m2
00:49 13 °C 9.8 °C 1017.2 hPa Calm     81% 0 mm 0 W/m2
00:54 12.9 °C 9.8 °C 1017.2 hPa Calm     81.5% 0 mm 0 W/m2
00:59 12.9 °C 9.9 °C 1017.2 hPa Calm     82% 0 mm 0 W/m2
01:04 12.9 °C 9.9 °C 1017.2 hPa Calm     82% 0 mm 0 W/m2
01:09 12.9 °C 9.9 °C 1017.2 hPa WNW 2.6 km/h 4.8 km/h 82% 0 mm 0 W/m2
01:14 12.9 °C 9.9 °C 1017.2 hPa WNW 3.2 km/h 4.8 km/h 82% 0 mm 0 W/m2
01:19 12.9 °C 10.1 °C 1017.2 hPa WNW 3.5 km/h 6.4 km/h 83% 0 mm 0 W/m2
01:24 12.9 °C 10.1 °C 1017.2 hPa WNW 5 km/h 8 km/h 83% 0 mm 0 W/m2
01:29 12.9 °C 10.2 °C 1017.2 hPa WNW 4.2 km/h 8 km/h 83% 0 mm 0 W/m2
01:34 12.9 °C 10.2 °C 1017.2 hPa WNW 2.3 km/h 6.4 km/h 83.6% 0 mm 0 W/m2
01:39 12.9 °C 10.3 °C 1016.8 hPa WNW 3.4 km/h 8 km/h 84% 0 mm 0 W/m2
01:44 12.9 °C 10.3 °C 1016.8 hPa WNW 2.6 km/h 9.7 km/h 84% 0 mm 0 W/m2
01:49 12.8 °C 10.3 °C 1016.8 hPa WNW 2.1 km/h 4.8 km/h 84.4% 0 mm 0 W/m2
01:54 12.8 °C 10.3 °C 1016.8 hPa WNW 3.5 km/h 6.4 km/h 85% 0 mm 0 W/m2
01:59 12.8 °C 10.3 °C 1016.8 hPa WNW 3.9 km/h 6.4 km/h 85% 0 mm 0 W/m2
02:04 12.8 °C 10.3 °C 1016.8 hPa WNW 3.7 km/h 8 km/h 85% 0 mm 0 W/m2
02:09 12.8 °C 10.3 °C 1016.8 hPa WNW 4.7 km/h 8 km/h 85% 0 mm 0 W/m2
02:14 12.9 °C 10.4 °C 1016.8 hPa WNW 5.3 km/h 8 km/h 85% 0 mm 0 W/m2
02:19 12.9 °C 10.5 °C 1016.8 hPa WNW 4.3 km/h 8 km/h 85.4% 0 mm 0 W/m2
02:24 12.8 °C 10.6 °C 1016.8 hPa WNW 5.3 km/h 8 km/h 86% 0 mm 0 W/m2
02:29 12.8 °C 10.5 °C 1016.8 hPa WNW 4 km/h 6.4 km/h 86% 0 mm 0 W/m2
02:34 12.7 °C 10.4 °C 1016.8 hPa WNW 3.5 km/h 8 km/h 86% 0 mm 0 W/m2
02:39 12.7 °C 10.4 °C 1016.8 hPa WNW 3.2 km/h 6.4 km/h 86% 0 mm 0 W/m2
02:44 12.7 °C 10.4 °C 1016.8 hPa WNW 4.5 km/h 8 km/h 86% 0 mm 0 W/m2
02:49 12.8 °C 10.5 °C 1016.8 hPa WNW 3.9 km/h 6.4 km/h 86% 0 mm 0 W/m2
02:54 12.8 °C 10.5 °C 1016.8 hPa WNW 3.4 km/h 6.4 km/h 86% 0 mm 0 W/m2
02:59 12.9 °C 10.6 °C 1016.8 hPa WNW 3.2 km/h 6.4 km/h 86% 0 mm 0 W/m2
03:04 12.9 °C 10.6 °C 1016.8 hPa WNW 1.6 km/h 4.8 km/h 86% 0 mm 0 W/m2
03:09 12.9 °C 10.6 °C 1016.8 hPa WNW 3.4 km/h 6.4 km/h 86% 0 mm 0 W/m2
03:14 12.9 °C 10.6 °C 1016.8 hPa WNW 3.2 km/h 6.4 km/h 86% 0 mm 0 W/m2
03:19 12.9 °C 10.6 °C 1016.8 hPa WNW 1.9 km/h 4.8 km/h 86% 0 mm 0 W/m2
03:29 13 °C 10.7 °C 1016.8 hPa WNW 1.3 km/h 4.8 km/h 86% 0 mm 0 W/m2
03:34 12.9 °C 10.7 °C 1016.8 hPa WNW 0.5 km/h 4.8 km/h 86% 0 mm 0 W/m2
03:39 13 °C 10.7 °C 1016.8 hPa Calm     86% 0 mm 0 W/m2
03:44 13 °C 10.7 °C 1016.8 hPa Calm     86% 0 mm 0 W/m2
03:49 12.9 °C 10.6 °C 1016.8 hPa Calm     86% 0 mm 0 W/m2
03:54 12.8 °C 10.6 °C 1016.8 hPa Calm     86% 0 mm 0 W/m2
03:59 12.8 °C 10.6 °C 1016.8 hPa Calm     86.6% 0 mm 0 W/m2
04:04 12.7 °C 10.6 °C 1016.8 hPa Calm   3.2 km/h 87% 0 mm 0 W/m2
04:09 12.7 °C 10.6 °C 1016.8 hPa WNW 1.6 km/h 4.8 km/h 87% 0 mm 0 W/m2
04:14 12.7 °C 10.7 °C 1016.8 hPa WNW 0.8 km/h 3.2 km/h 87% 0 mm 0 W/m2
04:19 12.7 °C 10.7 °C 1016.8 hPa WNW 0.3 km/h 3.2 km/h 87% 0 mm 0 W/m2
04:24 12.8 °C 10.7 °C 1016.8 hPa Calm   3.2 km/h 87% 0 mm 0 W/m2
04:29 12.8 °C 10.7 °C 1016.8 hPa WNW 1 km/h 4.8 km/h 87% 0 mm 0 W/m2
04:34 12.8 °C 10.7 °C 1016.8 hPa WNW 1.1 km/h 4.8 km/h 87% 0 mm 0 W/m2
04:39 12.9 °C 10.8 °C 1016.8 hPa Calm   4.8 km/h 87% 0 mm 0 W/m2
04:44 12.9 °C 10.8 °C 1016.8 hPa Calm     87.2% 0 mm 0 W/m2
04:49 12.9 °C 10.8 °C 1016.8 hPa WNW 0.6 km/h 4.8 km/h 87% 0 mm 0 W/m2
04:54 13 °C 11 °C 1016.8 hPa Calm     87.4% 0 mm 0 W/m2
04:59 13 °C 11 °C 1016.8 hPa Calm     87.6% 0 mm 0 W/m2
05:04 13 °C 11.1 °C 1016.5 hPa Calm     88% 0 mm 0 W/m2
05:09 13.1 °C 11.1 °C 1016.5 hPa Calm     87.6% 0 mm 0 W/m2
05:14 13 °C 11.1 °C 1016.8 hPa Calm     87.6% 0 mm 0 W/m2
05:19 13 °C 11.1 °C 1016.8 hPa Calm     87.8% 0 mm 0 W/m2
05:24 13 °C 11.1 °C 1016.8 hPa Calm     88% 0 mm 0 W/m2
05:29 13.1 °C 11.2 °C 1016.8 hPa Calm     88% 0 mm 0 W/m2
05:34 13.1 °C 11.2 °C 1016.8 hPa WNW 1.9 km/h 4.8 km/h 88% 0 mm 0 W/m2
05:39 13.1 °C 11.2 °C 1016.8 hPa Calm   3.2 km/h 88% 0 mm 0 W/m2
05:44 13.1 °C 11.2 °C 1016.8 hPa Calm   1.6 km/h 88% 0 mm 7 W/m2
05:49 13 °C 11.1 °C 1016.8 hPa WNW 0.3 km/h 3.2 km/h 88% 0 mm 9 W/m2
05:54 12.9 °C 11.1 °C 1016.8 hPa WNW 1.6 km/h 6.4 km/h 88% 0 mm 12 W/m2
05:59 12.9 °C 11 °C 1016.8 hPa Calm   3.2 km/h 88% 0 mm 18 W/m2
06:04 12.9 °C 11 °C 1016.8 hPa WNW 1.3 km/h 4.8 km/h 88% 0 mm 19 W/m2
06:09 12.9 °C 11 °C 1016.8 hPa WNW 1.3 km/h 6.4 km/h 88% 0 mm 25 W/m2
06:14 12.9 °C 11 °C 1016.8 hPa WNW 1.3 km/h 6.4 km/h 88% 0 mm 32 W/m2
06:19 12.9 °C 11 °C 1016.8 hPa WNW 2.4 km/h 8 km/h 88% 0 mm 35 W/m2
06:24 12.9 °C 11 °C 1016.8 hPa WNW 3.5 km/h 6.4 km/h 88% 0 mm 30 W/m2
06:29 12.9 °C 11.1 °C 1016.8 hPa WNW 3.2 km/h 6.4 km/h 88.6% 0 mm 30 W/m2
06:34 12.9 °C 11.1 °C 1016.8 hPa WNW 0.8 km/h 4.8 km/h 89% 0 mm 28 W/m2
06:39 12.9 °C 11.1 °C 1016.8 hPa WNW 2.1 km/h 6.4 km/h 89% 0 mm 26 W/m2
06:44 12.9 °C 11.1 °C 1016.8 hPa WNW 3.2 km/h 6.4 km/h 89% 0 mm 28 W/m2
06:49 12.9 °C 11.1 °C 1016.8 hPa West 2.7 km/h 9.7 km/h 89% 0 mm 30 W/m2
06:54 12.9 °C 11.1 °C 1016.8 hPa West 5.8 km/h 9.7 km/h 89% 0 mm 35 W/m2
06:59 12.9 °C 11.2 °C 1016.8 hPa WNW 2.7 km/h 8 km/h 89% 0 mm 44 W/m2
07:04 13.1 °C 11.3 °C 1016.8 hPa WNW 2.1 km/h 6.4 km/h 89% 0 mm 60 W/m2
07:09 13.2 °C 11.3 °C 1016.8 hPa West 2.9 km/h 8 km/h 89% 0 mm 65 W/m2
07:14 13.3 °C 11.5 °C 1016.8 hPa WSW 1.3 km/h 4.8 km/h 89% 0 mm 84 W/m2
07:19 13.3 °C 11.6 °C 1016.8 hPa WNW 0.6 km/h 8 km/h 89% 0 mm 151 W/m2
07:24 13.6 °C 11.8 °C 1017.2 hPa West 3.7 km/h 8 km/h 89% 0 mm 148 W/m2
07:29 13.7 °C 11.8 °C 1017.2 hPa West 1.3 km/h 4.8 km/h 88.2% 0 mm 123 W/m2
07:34 13.8 °C 11.8 °C 1017.2 hPa West 3.2 km/h 9.7 km/h 88% 0 mm 137 W/m2
07:39 13.9 °C 11.9 °C 1017.2 hPa WSW 2.4 km/h 9.7 km/h 88% 0 mm 144 W/m2
07:44 14.1 °C 12.1 °C 1017.2 hPa West 2.1 km/h 6.4 km/h 88% 0 mm 209 W/m2
07:49 14.2 °C 12.1 °C 1017.2 hPa Calm   3.2 km/h 87.4% 0 mm 232 W/m2
07:54 14.3 °C 12.2 °C 1017.2 hPa Calm     87% 0 mm 176 W/m2
07:59 14.6 °C 12.4 °C 1017.2 hPa West 5.3 km/h 11.3 km/h 87% 0 mm 272 W/m2
08:04 14.6 °C 12.4 °C 1017.2 hPa WNW 3.7 km/h 9.7 km/h 86.8% 0 mm 352 W/m2
08:09 14.8 °C 12.4 °C 1017.2 hPa WNW 4.3 km/h 11.3 km/h 86% 0 mm 325 W/m2
08:14 14.8 °C 12.5 °C 1017.2 hPa West 5.6 km/h 8 km/h 86% 0 mm 232 W/m2
08:19 14.9 °C 12.5 °C 1017.2 hPa West 4.7 km/h 8 km/h 85.6% 0 mm 186 W/m2
08:24 15 °C 12.5 °C 1017.2 hPa West 4.8 km/h 9.7 km/h 85% 0 mm 304 W/m2
08:29 15.3 °C 12.7 °C 1017.2 hPa West 5.8 km/h 14.5 km/h 84.2% 0 mm 325 W/m2
08:34 15.6 °C 12.7 °C 1017.2 hPa West 6.9 km/h 12.9 km/h 83% 0 mm 353 W/m2
08:39 15.7 °C 12.6 °C 1017.2 hPa West 6.4 km/h 12.9 km/h 81.8% 0 mm 373 W/m2
08:44 15.8 °C 12.5 °C 1017.2 hPa West 11.6 km/h 17.7 km/h 80.4% 0 mm 403 W/m2
08:49 16 °C 12.6 °C 1017.2 hPa WNW 7.4 km/h 16.1 km/h 80% 0 mm 258 W/m2
08:54 16.1 °C 12.6 °C 1017.2 hPa West 4.8 km/h 11.3 km/h 79.5% 0 mm 162 W/m2
08:59 16.2 °C 12.6 °C 1017.2 hPa West 10.9 km/h 16.1 km/h 79% 0 mm 265 W/m2
09:04 16.2 °C 12.6 °C 1017.2 hPa WSW 8.7 km/h 19.3 km/h 79% 0 mm 227 W/m2
09:09 16.1 °C 12.6 °C 1017.2 hPa West 8.5 km/h 20.9 km/h 79.6% 0 mm 234 W/m2
09:14 16.1 °C 12.8 °C 1017.2 hPa SW 9.2 km/h 16.1 km/h 81% 0 mm 299 W/m2
09:19 15.9 °C 12.6 °C 1017.5 hPa SW 10.1 km/h 17.7 km/h 81% 0 mm 239 W/m2
09:24 15.8 °C 12.5 °C 1017.5 hPa WSW 9.2 km/h 16.1 km/h 81% 0 mm 287 W/m2
09:29 15.7 °C 12.4 °C 1017.5 hPa WSW 8.4 km/h 16.1 km/h 81% 0 mm 311 W/m2
09:34 15.6 °C 12.4 °C 1017.5 hPa WSW 6 km/h 16.1 km/h 81.2% 0 mm 234 W/m2
09:39 15.7 °C 12.6 °C 1017.5 hPa SW 9.2 km/h 16.1 km/h 81.5% 0 mm 397 W/m2
09:44 15.8 °C 12.5 °C 1017.5 hPa WSW 9.7 km/h 16.1 km/h 81% 0 mm 422 W/m2
09:49 16 °C 12.7 °C 1017.5 hPa West 8.9 km/h 17.7 km/h 81% 0 mm 327 W/m2
09:54 16.2 °C 12.7 °C 1017.5 hPa WNW 12.9 km/h 17.7 km/h 79.4% 0 mm 566 W/m2
09:59 16.5 °C 12.8 °C 1017.5 hPa West 13.2 km/h 24.1 km/h 78.7% 0 mm 872 W/m2
10:04 16.6 °C 12.6 °C 1017.5 hPa West 19.6 km/h 27.4 km/h 77.2% 0 mm 446 W/m2
10:09 16.2 °C 12.5 °C 1017.5 hPa WNW 13.5 km/h 24.1 km/h 78.4% 0 mm 346 W/m2
10:14 15.7 °C 12.5 °C 1017.8 hPa WNW 7.6 km/h 17.7 km/h 81% 0 mm 271 W/m2
10:19 15.6 °C 12.8 °C 1017.8 hPa West 4.7 km/h 16.1 km/h 83.4% 0 mm 260 W/m2
10:24 15.4 °C 12.8 °C 1017.8 hPa West 6 km/h 12.9 km/h 84.6% 0 mm 287 W/m2
10:29 15.2 °C 12.8 °C 1017.5 hPa West 7.7 km/h 12.9 km/h 85.4% 0 mm 297 W/m2
10:34 15.3 °C 12.9 °C 1017.5 hPa WSW 5.3 km/h 11.3 km/h 86% 0 mm 352 W/m2
10:39 15.5 °C 13.2 °C 1017.5 hPa West 6.4 km/h 12.9 km/h 86.2% 0 mm 346 W/m2
10:44 15.6 °C 13.2 °C 1017.5 hPa SW 6.8 km/h 12.9 km/h 85.8% 0 mm 346 W/m2
10:49 15.7 °C 13.2 °C 1017.5 hPa West 5.6 km/h 9.7 km/h 85% 0 mm 292 W/m2
10:54 16 °C 13.3 °C 1017.5 hPa WSW 4.8 km/h 9.7 km/h 84.2% 0 mm 392 W/m2
10:59 16.3 °C 13.4 °C 1017.5 hPa WSW 4.3 km/h 12.9 km/h 82.6% 0 mm 698 W/m2
11:04 16.6 °C 13.2 °C 1017.5 hPa WSW 8.2 km/h 16.1 km/h 80.6% 0 mm 731 W/m2
11:09 16.8 °C 13.3 °C 1017.5 hPa West 5.5 km/h 12.9 km/h 80.3% 0 mm 766 W/m2
11:14 17 °C 13.2 °C 1017.2 hPa WNW 10.3 km/h 17.7 km/h 78.4% 0 mm 789 W/m2
11:19 17.3 °C 13.2 °C 1017.2 hPa West 8.7 km/h 17.7 km/h 77% 0 mm 796 W/m2
11:24 17.4 °C 13.2 °C 1017.2 hPa WNW 10.9 km/h 19.3 km/h 76.6% 0 mm 838 W/m2
11:29 17.8 °C 13.3 °C 1017.2 hPa West 9 km/h 19.3 km/h 75.2% 0 mm 893 W/m2
11:34 18.2 °C 13.3 °C 1017.2 hPa WNW 8.4 km/h 17.7 km/h 73% 0 mm 824 W/m2
11:39 18.4 °C 12.9 °C 1017.2 hPa West 13.8 km/h 22.5 km/h 70% 0 mm 814 W/m2
11:44 18.3 °C 12.9 °C 1017.2 hPa West 10.6 km/h 22.5 km/h 70.6% 0 mm 814 W/m2
11:49 18.7 °C 13 °C 1017.2 hPa WSW 8.5 km/h 17.7 km/h 69.4% 0 mm 856 W/m2
11:54 18.8 °C 12.9 °C 1017.2 hPa NW 9.2 km/h 19.3 km/h 68.3% 0 mm 844 W/m2
11:59 18.9 °C 12.9 °C 1017.2 hPa West 8.7 km/h 24.1 km/h 68% 0 mm 902 W/m2
12:04 19.2 °C 12.8 °C 1016.8 hPa WSW 15.4 km/h 27.4 km/h 66.4% 0 mm 912 W/m2
12:09 19.1 °C 13.4 °C 1016.8 hPa West 11.6 km/h 25.7 km/h 69.6% 0 mm 853 W/m2
12:14 19.3 °C 13.7 °C 1016.8 hPa West 12.2 km/h 20.9 km/h 70% 0 mm 809 W/m2
12:19 19.3 °C 13.5 °C 1016.8 hPa WSW 10 km/h 20.9 km/h 69% 0 mm 838 W/m2
12:24 19.3 °C 13.5 °C 1016.8 hPa SW 11.3 km/h 19.3 km/h 69% 0 mm 900 W/m2
12:29 19.9 °C 14.1 °C 1016.8 hPa WNW 9.7 km/h 17.7 km/h 69.4% 0 mm 954 W/m2
12:34 19.9 °C 13.8 °C 1016.5 hPa WNW 8.9 km/h 19.3 km/h 68.2% 0 mm 954 W/m2
12:39 19.9 °C 13.6 °C 1016.8 hPa WSW 16.4 km/h 20.9 km/h 66.6% 0 mm 928 W/m2
12:44 19.8 °C 13.4 °C 1016.8 hPa West 11.6 km/h 27.4 km/h 66.6% 0 mm 983 W/m2
12:49 19.8 °C 13.3 °C 1016.8 hPa WSW 15.8 km/h 27.4 km/h 66.2% 0 mm 977 W/m2
12:54 20.3 °C 13.7 °C 1016.5 hPa WSW 11.6 km/h 25.7 km/h 65.8% 0 mm 933 W/m2
12:58 20.2 °C 13.3 °C 1016.8 hPa West 7.6 km/h 27.4 km/h 65% 0 mm 911 W/m2
13:04 20.1 °C 13.3 °C 1016.8 hPa West 12.9 km/h 19.3 km/h 65.4% 0 mm 967 W/m2
13:09 20.3 °C 13.5 °C 1016.8 hPa West 14.6 km/h 22.5 km/h 65% 0 mm 967 W/m2
13:14 20.3 °C 13.3 °C 1016.8 hPa WSW 19.3 km/h 29 km/h 64.2% 0 mm 1021 W/m2
13:19 20.1 °C 13.2 °C 1016.8 hPa West 18.5 km/h 25.7 km/h 64.2% 0 mm 1025 W/m2
13:24 20.1 °C 13.2 °C 1016.8 hPa West 8.4 km/h 24.1 km/h 64.4% 0 mm 895 W/m2
13:29 20.4 °C 13.4 °C 1016.8 hPa WNW 9.7 km/h 20.9 km/h 64.2% 0 mm 969 W/m2
13:34 20.7 °C 12.8 °C 1016.8 hPa WSW 12.6 km/h 20.9 km/h 60.4% 0 mm 953 W/m2
13:39 20.5 °C 12.4 °C 1016.8 hPa WSW 13.5 km/h 29 km/h 60% 0 mm 953 W/m2
13:44 20.5 °C 12.6 °C 1016.8 hPa West 13.7 km/h 27.4 km/h 60.3% 0 mm 615 W/m2
13:49 20.3 °C 12.7 °C 1016.5 hPa West 16.1 km/h 25.7 km/h 61.8% 0 mm 1034 W/m2
13:54 20.4 °C 12.7 °C 1016.5 hPa WSW 13.8 km/h 25.7 km/h 61% 0 mm 997 W/m2
13:59 20.1 °C 12.3 °C 1016.5 hPa WSW 16.9 km/h 25.7 km/h 61% 0 mm 942 W/m2
14:04 19.8 °C 12.4 °C 1016.5 hPa WSW 9 km/h 19.3 km/h 62.4% 0 mm 526 W/m2
14:09 19.8 °C 12.4 °C 1016.5 hPa WSW 10.3 km/h 19.3 km/h 62.4% 0 mm 613 W/m2
14:14 20.2 °C 12.7 °C 1016.5 hPa WSW 11.6 km/h 24.1 km/h 62% 0 mm 958 W/m2
14:19 20.6 °C 12.8 °C 1016.5 hPa WSW 15.8 km/h 29 km/h 61% 0 mm 904 W/m2
14:24 20.4 °C 12.3 °C 1016.5 hPa WSW 13.5 km/h 24.1 km/h 59.6% 0 mm 904 W/m2
14:29 20.6 °C 12.6 °C 1016.5 hPa West 9.3 km/h 20.9 km/h 60% 0 mm 784 W/m2
14:34 20.4 °C 12.7 °C 1016.5 hPa West 14 km/h 27.4 km/h 61% 0 mm 828 W/m2
14:39 20.5 °C 12.8 °C 1016.5 hPa West 13.2 km/h 25.7 km/h 61.2% 0 mm 879 W/m2
14:44 20.6 °C 12.7 °C 1016.5 hPa WSW 13.8 km/h 24.1 km/h 60.2% 0 mm 893 W/m2
14:49 20.9 °C 12.8 °C 1016.5 hPa WSW 14.6 km/h 19.3 km/h 59.8% 0 mm 900 W/m2
14:54 20.8 °C 12.6 °C 1016.5 hPa WNW 14.6 km/h 24.1 km/h 59.4% 0 mm 933 W/m2
14:59 20.7 °C 12.5 °C 1016.5 hPa NW 8.5 km/h 24.1 km/h 59.6% 0 mm 933 W/m2
15:04 20.8 °C 12.8 °C 1016.5 hPa West 14.8 km/h 22.5 km/h 60.2% 0 mm 942 W/m2
15:09 20.7 °C 12.7 °C 1016.1 hPa West 10.9 km/h 22.5 km/h 60% 0 mm 947 W/m2
15:13 20.3 °C 12.3 °C 1016.1 hPa West 11.3 km/h 24.1 km/h 60% 0 mm 942 W/m2
15:19 20.1 °C 12 °C 1016.1 hPa West 11.1 km/h 22.5 km/h 60% 0 mm 838 W/m2
15:24 20.1 °C 12 °C 1016.1 hPa WNW 13.2 km/h 25.7 km/h 60% 0 mm 828 W/m2
15:29 20.6 °C 12.6 °C 1016.1 hPa WSW 10.1 km/h 22.5 km/h 60.2% 0 mm 812 W/m2
15:34 20.7 °C 12.4 °C 1016.1 hPa West 12.6 km/h 25.7 km/h 59% 0 mm 807 W/m2
15:39 20.6 °C 12.6 °C 1016.1 hPa West 12.9 km/h 20.9 km/h 60% 0 mm 856 W/m2
15:44 20.7 °C 12.8 °C 1016.1 hPa West 12.2 km/h 24.1 km/h 60.2% 0 mm 810 W/m2
15:49 20.7 °C 12.7 °C 1016.1 hPa West 8 km/h 20.9 km/h 60.4% 0 mm 810 W/m2
15:54 20.8 °C 13 °C 1016.1 hPa WNW 12.7 km/h 19.3 km/h 60.8% 0 mm 780 W/m2
15:59 20.6 °C 12.7 °C 1016.1 hPa WSW 12.6 km/h 22.5 km/h 60.8% 0 mm 722 W/m2
16:04 20.4 °C 12.8 °C 1016.1 hPa West 10.1 km/h 19.3 km/h 61.4% 0 mm 809 W/m2
16:09 20.6 °C 12.9 °C 1016.1 hPa West 14.5 km/h 27.4 km/h 61.6% 0 mm 800 W/m2
16:14 20.4 °C 13.1 °C 1016.1 hPa West 13.2 km/h 22.5 km/h 62.8% 0 mm 784 W/m2
16:19 20.6 °C 13.2 °C 1015.8 hPa WNW 11.7 km/h 22.5 km/h 62.4% 0 mm 770 W/m2
16:23 20.8 °C 13.4 °C 1015.8 hPa West 14.5 km/h 22.5 km/h 62.5% 0 mm 765 W/m2
16:29 20.8 °C 13.3 °C 1015.8 hPa West 8.5 km/h 20.9 km/h 62.4% 0 mm 715 W/m2
16:34 21.1 °C 13.6 °C 1015.8 hPa WNW 10 km/h 20.9 km/h 62.4% 0 mm 691 W/m2
16:39 20.7 °C 13.3 °C 1015.8 hPa NW 11.3 km/h 20.9 km/h 62.8% 0 mm 290 W/m2
16:44 20.3 °C 13.3 °C 1015.8 hPa WNW 5.3 km/h 17.7 km/h 63.8% 0 mm 754 W/m2
16:49 20.4 °C 13.4 °C 1015.8 hPa NW 8.9 km/h 24.1 km/h 64% 0 mm 754 W/m2
16:54 20.2 °C 13.2 °C 1015.8 hPa WNW 6.9 km/h 17.7 km/h 64.2% 0 mm 582 W/m2
16:59 20.2 °C 13.2 °C 1015.8 hPa WNW 7.1 km/h 16.1 km/h 64.2% 0 mm 452 W/m2
17:04 19.9 °C 13 °C 1015.8 hPa WNW 12.6 km/h 17.7 km/h 64.2% 0 mm 517 W/m2
17:09 20.1 °C 13.3 °C 1015.8 hPa NW 6.3 km/h 16.1 km/h 65% 0 mm 617 W/m2
17:14 20.4 °C 13.2 °C 1015.8 hPa WNW 9.5 km/h 17.7 km/h 63.6% 0 mm 543 W/m2
17:19 20.4 °C 13.1 °C 1015.8 hPa WNW 10.8 km/h 20.9 km/h 62.6% 0 mm 436 W/m2
17:24 20.1 °C 12.7 °C 1015.8 hPa NW 9.7 km/h 19.3 km/h 62.6% 0 mm 454 W/m2
17:29 19.8 °C 12.6 °C 1015.8 hPa NW 11.3 km/h 17.7 km/h 62.8% 0 mm 499 W/m2
17:34 19.9 °C 12.4 °C 1015.8 hPa WNW 11.6 km/h 20.9 km/h 62% 0 mm 466 W/m2
17:39 19.6 °C 12.2 °C 1015.8 hPa West 12.4 km/h 20.9 km/h 62.6% 0 mm 169 W/m2
17:44 19.3 °C 12.2 °C 1015.8 hPa WNW 10.5 km/h 24.1 km/h 63.4% 0 mm 155 W/m2
17:49 19.3 °C 12.3 °C 1015.8 hPa West 12.7 km/h 20.9 km/h 64% 0 mm 144 W/m2
17:59 19.1 °C 12.1 °C 1015.8 hPa WNW 12.1 km/h 20.9 km/h 64% 0 mm 98 W/m2
18:04 19.1 °C 12.1 °C 1015.8 hPa WNW 12.6 km/h 16.1 km/h 64% 0 mm 90 W/m2
18:09 18.8 °C 11.9 °C 1015.8 hPa WNW 10.3 km/h 20.9 km/h 64.2% 0 mm 111 W/m2
18:14 18.8 °C 12.1 °C 1015.8 hPa WNW 8.4 km/h 17.7 km/h 65% 0 mm 139 W/m2
18:19 18.7 °C 12.1 °C 1015.8 hPa WNW 8.2 km/h 20.9 km/h 65% 0 mm 204 W/m2
18:24 18.6 °C 11.9 °C 1015.8 hPa WNW 12.6 km/h 25.7 km/h 65% 0 mm 181 W/m2
18:29 18.5 °C 11.9 °C 1015.8 hPa WNW 14.2 km/h 25.7 km/h 65.8% 0 mm 190 W/m2
18:34 18.3 °C 11.8 °C 1015.8 hPa WNW 15.4 km/h 25.7 km/h 66% 0 mm 216 W/m2
18:39 18.3 °C 11.8 °C 1015.8 hPa WNW 9.2 km/h 24.1 km/h 66% 0 mm 181 W/m2
18:44 18.2 °C 11.6 °C 1015.8 hPa West 14.2 km/h 20.9 km/h 65.4% 0 mm 160 W/m2
18:49 18.2 °C 11.4 °C 1015.8 hPa West 8.2 km/h 17.7 km/h 64.8% 0 mm 141 W/m2
18:54 18.1 °C 11.3 °C 1015.8 hPa NW 10.6 km/h 19.3 km/h 64.6% 0 mm 113 W/m2
18:59 17.8 °C 10.9 °C 1015.8 hPa WNW 12.9 km/h 20.9 km/h 64% 0 mm 102 W/m2
19:04 17.7 °C 11 °C 1015.8 hPa WNW 8.5 km/h 17.7 km/h 64.8% 0 mm 97 W/m2
19:09 17.6 °C 11.1 °C 1015.8 hPa WNW 11.6 km/h 22.5 km/h 65.4% 0 mm 90 W/m2
19:14 17.5 °C 11.1 °C 1015.8 hPa West 12.2 km/h 17.7 km/h 66.2% 0 mm 84 W/m2
19:19 17.3 °C 11.2 °C 1015.8 hPa WNW 9 km/h 20.9 km/h 67% 0 mm 79 W/m2
19:24 17.3 °C 11.2 °C 1015.8 hPa West 7.6 km/h 14.5 km/h 67.8% 0 mm 69 W/m2
19:29 17.3 °C 11.3 °C 1015.8 hPa West 5.8 km/h 14.5 km/h 68% 0 mm 67 W/m2
19:34 17.2 °C 11.2 °C 1015.8 hPa West 6.3 km/h 12.9 km/h 68% 0 mm 67 W/m2
19:39 17.1 °C 11.2 °C 1015.8 hPa West 9.7 km/h 20.9 km/h 68% 0 mm 63 W/m2
19:44 16.9 °C 11.2 °C 1015.8 hPa WNW 8.7 km/h 17.7 km/h 69% 0 mm 54 W/m2
19:49 16.8 °C 11.1 °C 1015.8 hPa WNW 10.9 km/h 20.9 km/h 69% 0 mm 47 W/m2
19:54 16.7 °C 11.1 °C 1015.8 hPa WNW 4.7 km/h 17.7 km/h 69.6% 0 mm 40 W/m2
19:59 16.7 °C 11.2 °C 1015.8 hPa WNW 9.7 km/h 20.9 km/h 70% 0 mm 37 W/m2
20:04 16.6 °C 11.3 °C 1015.8 hPa WNW 5.6 km/h 8 km/h 71% 0 mm 33 W/m2
20:09 16.6 °C 11.3 °C 1015.8 hPa West 5 km/h 8 km/h 71.2% 0 mm 33 W/m2
20:13 16.6 °C 11.4 °C 1015.8 hPa West 7.2 km/h 11.3 km/h 72% 0 mm 33 W/m2
20:19 16.4 °C 11.3 °C 1015.8 hPa West 6 km/h 11.3 km/h 72.2% 0 mm 28 W/m2
20:24 16.4 °C 11.6 °C 1015.8 hPa West 9 km/h 16.1 km/h 73.2% 0 mm 19 W/m2
20:29 16.3 °C 11.7 °C 1015.8 hPa WSW 9.7 km/h 16.1 km/h 74% 0 mm 14 W/m2
20:34 16.2 °C 11.7 °C 1015.8 hPa West 5.6 km/h 12.9 km/h 74.6% 0 mm 12 W/m2
20:39 16.1 °C 11.7 °C 1015.8 hPa West 7.6 km/h 9.7 km/h 75% 0 mm 9 W/m2
20:44 16.1 °C 11.7 °C 1016.1 hPa West 5.8 km/h 9.7 km/h 75% 0 mm 7 W/m2
20:49 15.9 °C 11.5 °C 1016.1 hPa West 7.9 km/h 12.9 km/h 75% 0 mm 5 W/m2
20:54 15.8 °C 11.4 °C 1016.1 hPa WSW 7.9 km/h 14.5 km/h 75% 0 mm 0 W/m2
20:59 15.7 °C 11.3 °C 1016.1 hPa West 7.1 km/h 14.5 km/h 75% 0 mm 0 W/m2
21:04 15.7 °C 11.3 °C 1016.1 hPa West 7.6 km/h 12.9 km/h 75% 0 mm 0 W/m2
21:09 15.5 °C 11.2 °C 1016.1 hPa West 6.8 km/h 12.9 km/h 75.6% 0 mm 0 W/m2
21:14 15.4 °C 11.2 °C 1016.1 hPa West 3.9 km/h 9.7 km/h 76% 0 mm 0 W/m2
21:19 15.3 °C 11.1 °C 1016.1 hPa West 6 km/h 11.3 km/h 75.4% 0 mm 0 W/m2
21:24 15.3 °C 11.1 °C 1016.1 hPa WNW 6 km/h 12.9 km/h 76% 0 mm 0 W/m2
21:29 15.2 °C 11 °C 1016.1 hPa WNW 4.2 km/h 9.7 km/h 76% 0 mm 0 W/m2
21:34 15.1 °C 10.9 °C 1016.1 hPa WNW 4.7 km/h 8 km/h 76% 0 mm 0 W/m2
21:39 15.1 °C 10.8 °C 1016.1 hPa WNW 5 km/h 8 km/h 76% 0 mm 0 W/m2
21:44 14.9 °C 10.7 °C 1016.5 hPa West 6.9 km/h 14.5 km/h 76% 0 mm 0 W/m2
21:49 14.8 °C 10.6 °C 1016.5 hPa WNW 5.8 km/h 11.3 km/h 76% 0 mm 0 W/m2
21:54 14.8 °C 10.6 °C 1016.5 hPa WNW 7.1 km/h 11.3 km/h 76% 0 mm 0 W/m2
21:59 14.7 °C 10.4 °C 1016.1 hPa WNW 6 km/h 11.3 km/h 76% 0 mm 0 W/m2
22:04 14.6 °C 10.5 °C 1016.1 hPa WNW 4 km/h 8 km/h 76.8% 0 mm 0 W/m2
22:09 14.4 °C 10.4 °C 1016.5 hPa WNW 4 km/h 8 km/h 77% 0 mm 0 W/m2
22:14 14.3 °C 10.4 °C 1016.5 hPa West 4 km/h 8 km/h 77.4% 0 mm 0 W/m2
22:19 14.3 °C 10.5 °C 1016.5 hPa West 3.9 km/h 8 km/h 78% 0 mm 0 W/m2
22:24 14.2 °C 10.4 °C 1016.5 hPa WNW 2.7 km/h 8 km/h 78% 0 mm 0 W/m2
22:28 14.2 °C 10.6 °C 1016.5 hPa West 2.7 km/h 6.4 km/h 78.8% 0 mm 0 W/m2
22:34 14.2 °C 10.6 °C 1016.5 hPa West 4.7 km/h 8 km/h 79% 0 mm 0 W/m2
22:39 14.1 °C 10.6 °C 1016.1 hPa West 4 km/h 8 km/h 79.6% 0 mm 0 W/m2
22:44 13.9 °C 10.6 °C 1016.5 hPa West 4.7 km/h 9.7 km/h 80% 0 mm 0 W/m2
22:49 13.9 °C 10.5 °C 1016.5 hPa West 4.2 km/h 8 km/h 80% 0 mm 0 W/m2
22:54 13.8 °C 10.7 °C 1016.5 hPa WNW 4.5 km/h 8 km/h 81% 0 mm 0 W/m2
22:59 13.8 °C 10.7 °C 1016.1 hPa WNW 5.1 km/h 9.7 km/h 81.2% 0 mm 0 W/m2
23:04 13.7 °C 10.7 °C 1016.1 hPa WNW 5 km/h 11.3 km/h 82% 0 mm 0 W/m2
23:09 13.7 °C 10.7 °C 1016.1 hPa WNW 5.8 km/h 9.7 km/h 82% 0 mm 0 W/m2
23:14 13.6 °C 10.7 °C 1016.1 hPa WNW 5.3 km/h 12.9 km/h 82.8% 0 mm 0 W/m2
23:19 13.6 °C 10.8 °C 1016.1 hPa WNW 6.6 km/h 12.9 km/h 83% 0 mm 0 W/m2
23:24 13.6 °C 10.7 °C 1016.1 hPa WNW 5.3 km/h 8 km/h 83% 0 mm 0 W/m2
23:29 13.4 °C 10.8 °C 1016.1 hPa WNW 4.2 km/h 11.3 km/h 83.8% 0 mm 0 W/m2
23:34 13.4 °C 10.8 °C 1016.1 hPa WNW 1.9 km/h 11.3 km/h 84% 0 mm 0 W/m2
23:39 13.4 °C 10.8 °C 1016.1 hPa WNW 1.6 km/h 6.4 km/h 84.5% 0 mm 0 W/m2
23:44 13.3 °C 10.8 °C 1016.1 hPa Calm     85% 0 mm 0 W/m2
23:49 13.3 °C 10.8 °C 1016.1 hPa Calm     85% 0 mm 0 W/m2
23:54 13.3 °C 10.8 °C 1016.1 hPa Calm   3.2 km/h 85% 0 mm 0 W/m2
23:59 13.2 °C 10.7 °C 1016.1 hPa Calm     85% 0 mm 0 W/m2
Bath Spa Weather
Compliments of Weather Underground - 2 mb